Time;durP1;ratioP1;P1;durP2;ratioP2;P2;SDS_P1;SDS_P2;PMS_P1;PMS_P2;Temp;Humidity;BMP_temperature;BMP_pressure;BME280_temperature;BME280_humidity;BME280_pressure;Samples;Min_cycle;Max_cycle;Signal;HPM_P1;HPM_P2
2022/10/01 00:03:11;;;;;;;;;;;12.50;48.00;;;10.28;54.92;100747.38;12252919;19;19925;-85
2022/10/01 00:07:13;;;;;;;;;;;12.80;48.10;;;10.11;54.99;100717.78;12252717;19;19923;-85
2022/10/01 00:11:18;;;;;;;;;;;12.50;47.90;;;9.88;55.02;100694.66;12253670;19;19927;-85
2022/10/01 00:15:20;;;;;;;;;;;12.80;48.00;;;10.03;54.94;100724.34;12253455;19;19962;-85
2022/10/01 00:19:22;;;;;;;;;;;12.40;47.90;;;10.14;55.26;100741.09;12254542;19;20328;-85
2022/10/01 00:23:23;;;;;;;;;;;12.30;47.90;;;10.15;55.21;100745.41;12253844;19;19915;-85
2022/10/01 00:27:25;;;;;;;;;;;12.70;48.20;;;10.15;55.36;100727.16;12248938;19;19925;-84
2022/10/01 00:31:27;;;;;;;;;;;12.30;48.10;;;9.82;55.29;100677.59;12253969;19;20362;-85
2022/10/01 00:35:29;;;;;;;;;;;12.30;48.20;;;10.20;55.31;100725.09;12250483;19;19930;-85
2022/10/01 00:39:31;;;;;;;;;;;12.30;48.20;;;10.12;55.26;100690.75;12253708;19;20291;-85
2022/10/01 00:43:36;;;;;;;;;;;12.30;48.30;;;10.02;55.04;100675.69;12252476;19;19918;-85
2022/10/01 00:47:42;;;;;;;;;;;12.30;48.20;;;10.12;55.15;100697.75;12244754;19;19923;-85
2022/10/01 00:51:49;;;;;;;;;;;12.40;48.20;;;10.09;55.21;100690.91;12249152;19;19926;-84
2022/10/01 00:55:54;;;;;;;;;;;12.40;48.30;;;10.20;55.26;100695.56;12247855;19;19914;-85
2022/10/01 00:59:58;;;;;;;;;;;12.60;48.30;;;10.10;55.25;100681.31;12248349;19;19978;-85
2022/10/01 01:04:00;;;;;;;;;;;12.40;48.20;;;10.12;55.33;100687.31;12247459;19;20321;-85
2022/10/01 01:08:02;;;;;;;;;;;12.40;48.20;;;10.17;55.13;100693.13;12248395;19;19919;-84
2022/10/01 01:12:13;;;;;;;;;;;12.40;48.20;;;10.00;54.97;100667.09;12242604;19;19943;-85
2022/10/01 01:16:21;;;;;;;;;;;12.40;48.10;;;9.96;54.95;100672.50;12244688;19;19915;-85
2022/10/01 01:20:48;;;;;;;;;;;12.30;48.00;;;10.06;55.10;100711.13;12248094;19;19990;-85
2022/10/01 01:25:10;;;;;;;;;;;12.30;48.00;;;10.04;55.31;100697.31;12244990;19;19915;-85
2022/10/01 01:29:36;;;;;;;;;;;12.20;48.00;;;9.91;55.16;100677.13;12243184;19;20008;-85
2022/10/01 01:33:39;;;;;;;;;;;12.20;48.10;;;9.96;55.16;100689.88;12250003;19;20249;-85
2022/10/01 01:37:44;;;;;;;;;;;12.20;48.10;;;9.89;55.39;100678.13;12243279;19;19923;-85
2022/10/01 01:41:50;;;;;;;;;;;12.30;48.20;;;9.76;55.30;100677.91;12249502;19;19911;-84
2022/10/01 01:45:55;;;;;;;;;;;12.10;48.20;;;9.92;55.25;100704.03;12246351;19;19922;-84
2022/10/01 01:49:57;;;;;;;;;;;12.10;48.20;;;9.78;55.28;100683.91;12249132;19;19930;-85
2022/10/01 01:53:59;;;;;;;;;;;12.10;48.20;;;9.72;55.39;100666.81;12246543;19;19911;-84
2022/10/01 01:58:01;;;;;;;;;;;12.10;48.20;;;9.71;55.18;100670.31;12248271;19;19975;-85
2022/10/01 02:02:05;;;;;;;;;;;12.10;48.20;;;9.75;55.19;100666.66;12257849;19;19911;-85
2022/10/01 02:06:23;;;;;;;;;;;12.00;48.10;;;9.74;55.40;100675.38;12256945;19;19911;-85
2022/10/01 02:10:35;;;;;;;;;;;12.00;48.50;;;9.62;55.33;100660.38;12258855;19;19910;-85
2022/10/01 02:14:41;;;;;;;;;;;11.90;48.00;;;9.68;55.22;100665.28;12258860;19;19915;-84
2022/10/01 02:19:12;;;;;;;;;;;11.90;48.10;;;9.63;55.39;100663.84;12258940;19;19910;-85
2022/10/01 02:23:19;;;;;;;;;;;11.90;48.10;;;9.49;55.35;100643.69;12258824;19;19922;-85
2022/10/01 02:27:29;;;;;;;;;;;11.90;48.20;;;9.45;55.49;100634.34;12252535;19;20333;-85
2022/10/01 02:31:31;;;;;;;;;;;11.90;48.30;;;9.49;55.47;100641.09;12255955;19;20263;-84
2022/10/01 02:35:34;;;;;;;;;;;11.80;48.30;;;9.65;55.53;100670.66;12256946;19;19990;-85
2022/10/01 02:39:37;;;;;;;;;;;11.80;48.40;;;9.56;55.43;100652.91;12257539;19;19934;-85
2022/10/01 02:43:49;;;;;;;;;;;12.00;48.50;;;9.44;55.40;100633.50;12251849;19;20405;-85
2022/10/01 02:48:03;;;;;;;;;;;11.80;48.40;;;9.68;55.43;100665.28;12252831;19;19913;-83
2022/10/01 02:52:30;;;;;;;;;;;11.90;48.50;;;9.70;55.47;100660.00;12255091;19;20270;-85
2022/10/01 03:00:52;;;;;;;;;;;12.20;48.60;;;9.64;55.71;100650.72;12256308;19;19994;-85
2022/10/01 03:04:57;;;;;;;;;;;11.90;48.50;;;9.65;55.76;100652.41;12251322;19;19975;-85
2022/10/01 03:08:59;;;;;;;;;;;11.90;48.50;;;9.68;55.56;100654.00;12254559;19;19907;-85
2022/10/01 03:13:00;;;;;;;;;;;11.90;48.50;;;9.66;55.62;100646.25;12256632;19;19974;-85
2022/10/01 03:17:02;;;;;;;;;;;11.90;48.50;;;9.58;55.53;100624.97;12254214;19;19915;-85
2022/10/01 03:21:03;;;;;;;;;;;11.90;48.60;;;9.52;55.70;100607.88;12254907;19;19933;-85
2022/10/01 03:25:05;;;;;;;;;;;11.90;48.60;;;9.42;55.64;100591.03;12250804;19;19918;-84
2022/10/01 03:29:07;;;;;;;;;;;11.90;48.60;;;9.53;55.63;100600.91;12252883;19;20263;-85
2022/10/01 03:33:08;;;;;;;;;;;11.90;48.50;;;9.72;55.46;100619.00;12253897;19;20542;-85
2022/10/01 03:37:10;;;;;;;;;;;11.90;48.50;;;9.68;55.50;100618.34;12252845;19;20298;-85
2022/10/01 03:41:11;;;;;;;;;;;11.90;48.50;;;9.58;55.53;100595.44;12250721;19;19915;-85
2022/10/01 03:45:13;;;;;;;;;;;12.30;48.60;;;9.51;55.73;100584.53;12253534;19;19936;-85
2022/10/01 03:49:15;;;;;;;;;;;11.90;48.40;;;9.60;55.77;100615.31;12254048;19;19938;-85
2022/10/01 03:53:17;;;;;;;;;;;11.80;48.40;;;9.56;55.69;100607.72;12255221;19;19922;-85
2022/10/01 03:57:18;;;;;;;;;;;12.10;48.60;;;9.52;55.82;100596.63;12250764;19;20305;-85
2022/10/01 04:01:20;;;;;;;;;;;11.80;48.40;;;9.22;55.77;100547.78;12253295;19;20309;-84
2022/10/01 04:05:24;;;;;;;;;;;11.80;48.50;;;9.18;55.68;100535.88;12250937;19;20514;-85
2022/10/01 04:09:25;;;;;;;;;;;11.80;48.50;;;9.50;55.87;100582.81;12250623;19;19906;-85
2022/10/01 04:13:28;;;;;;;;;;;11.70;48.90;;;9.39;55.62;100572.97;12252949;19;19923;-85
2022/10/01 04:17:30;;;;;;;;;;;12.00;48.60;;;9.43;55.67;100577.09;12248027;19;19915;-85
2022/10/01 04:21:32;;;;;;;;;;;11.70;48.50;;;9.41;55.88;100578.94;12248793;19;20290;-85
2022/10/01 04:25:33;;;;;;;;;;;11.90;48.60;;;9.48;55.99;100579.47;12246971;19;19934;-85
2022/10/01 04:29:35;;;;;;;;;;;11.70;48.60;;;9.43;55.90;100561.47;12251901;19;20534;-85
2022/10/01 04:33:36;;;;;;;;;;;11.70;48.70;;;9.30;55.77;100548.22;12248750;19;19979;-85
2022/10/01 04:37:38;;;;;;;;;;;11.70;48.70;;;9.53;55.87;100572.22;12248144;19;19911;-85
2022/10/01 04:41:40;;;;;;;;;;;12.20;48.90;;;9.44;55.90;100559.69;12249231;19;19921;-85
2022/10/01 04:45:41;;;;;;;;;;;11.70;48.90;;;9.51;55.88;100561.91;12248739;19;19922;-85
2022/10/01 04:49:43;;;;;;;;;;;11.70;48.90;;;9.50;56.01;100556.75;12247201;19;19922;-85
2022/10/01 04:53:44;;;;;;;;;;;11.80;48.90;;;9.44;55.91;100547.50;12249198;19;20364;-85
2022/10/01 04:57:46;;;;;;;;;;;11.80;49.00;;;9.62;56.12;100563.94;12246120;19;19919;-85
2022/10/01 05:01:48;;;;;;;;;;;11.80;49.00;;;9.65;55.98;100555.09;12245542;19;19978;-84
2022/10/01 05:05:49;;;;;;;;;;;11.80;49.10;;;9.52;56.10;100523.63;12241870;19;19957;-85
2022/10/01 05:09:50;;;;;;;;;;;11.90;49.10;;;9.59;56.09;100530.22;12245985;19;19926;-86
2022/10/01 05:13:53;;;;;;;;;;;11.90;49.50;;;9.60;56.05;100534.47;12248241;19;19923;-86
2022/10/01 05:17:54;;;;;;;;;;;11.90;49.10;;;9.34;56.03;100481.16;12244064;19;19926;-85
2022/10/01 05:21:56;;;;;;;;;;;11.90;49.10;;;9.62;56.00;100522.22;12245949;19;20434;-86
2022/10/01 05:25:57;;;;;;;;;;;12.00;49.20;;;9.62;56.13;100521.38;12243646;19;19911;-86
2022/10/01 05:30:00;;;;;;;;;;;12.00;49.10;;;9.74;56.13;100534.56;12246824;19;20138;-85
2022/10/01 05:34:02;;;;;;;;;;;12.00;49.40;;;9.75;56.23;100536.25;12258770;19;19915;-85
2022/10/01 05:38:03;;;;;;;;;;;12.10;49.50;;;9.94;56.28;100543.91;12254211;19;20317;-86
2022/10/01 05:42:05;;;;;;;;;;;12.10;49.40;;;10.00;56.22;100540.13;12256870;19;19915;-85
2022/10/01 05:46:09;;;;;;;;;;;12.10;49.50;;;9.65;56.17;100482.09;12255781;19;19927;-86
2022/10/01 05:50:10;;;;;;;;;;;12.20;49.50;;;10.07;56.25;100533.66;12257497;19;20016;-85
2022/10/01 05:54:12;;;;;;;;;;;12.20;49.30;;;10.02;56.50;100524.38;12256368;19;19919;-84
2022/10/01 05:58:14;;;;;;;;;;;12.20;49.70;;;9.69;56.37;100455.78;12254582;19;19918;-85
2022/10/01 06:02:15;;;;;;;;;;;12.30;49.20;;;10.17;56.34;100521.75;12260824;19;19921;-85
2022/10/01 06:06:25;;;;;;;;;;;12.30;49.30;;;10.17;56.44;100503.47;12255186;19;19911;-85
2022/10/01 06:10:29;;;;;;;;;;;12.40;49.50;;;10.10;56.39;100480.41;12258546;19;19915;-84
2022/10/01 06:14:30;;;;;;;;;;;12.80;49.80;;;10.35;56.38;100498.16;12256183;19;19956;-84
2022/10/01 06:18:32;;;;;;;;;;;12.40;49.60;;;10.24;56.42;100469.22;12256746;19;19922;-83
2022/10/01 06:22:33;;;;;;;;;;;12.50;49.70;;;10.25;56.45;100455.22;12255927;19;19943;-84
2022/10/01 06:26:35;;;;;;;;;;;12.50;49.70;;;10.48;56.56;100477.41;12252899;19;19919;-83
2022/10/01 06:30:38;;;;;;;;;;;12.60;49.80;;;10.50;56.64;100455.50;12257301;19;19915;-84
2022/10/01 06:34:39;;;;;;;;;;;12.70;49.50;;;10.62;56.60;100457.38;12252944;19;19915;-84
2022/10/01 06:38:41;;;;;;;;;;;12.70;49.80;;;10.65;56.59;100445.09;12255355;19;19933;-83
2022/10/01 06:42:50;;;;;;;;;;;13.20;50.00;;;10.84;56.83;100461.31;12251288;19;19921;-83
2022/10/01 06:46:53;;;;;;;;;;;12.90;49.60;;;10.80;56.77;100442.38;12253069;19;19918;-84
2022/10/01 06:50:55;;;;;;;;;;;12.90;49.80;;;10.94;56.68;100446.78;12254720;19;19919;-84
2022/10/01 06:54:58;;;;;;;;;;;13.10;49.80;;;11.03;56.70;100456.66;12255506;19;19931;-84
2022/10/01 06:59:00;;;;;;;;;;;13.10;49.70;;;10.97;56.67;100420.44;12255445;19;19922;-85
2022/10/01 07:03:09;;;;;;;;;;;13.20;49.60;;;11.03;56.85;100422.69;12255678;19;19918;-84
2022/10/01 07:07:11;;;;;;;;;;;13.20;49.60;;;11.29;56.83;100438.53;12252880;19;19922;-84
2022/10/01 07:11:12;;;;;;;;;;;13.30;49.60;;;11.29;56.81;100428.06;12254511;19;19919;-83
2022/10/01 07:15:15;;;;;;;;;;;13.40;49.70;;;11.38;56.75;100431.88;12251990;19;19947;-82
2022/10/01 07:19:17;;;;;;;;;;;13.50;50.00;;;11.46;56.78;100419.97;12249632;19;19923;-83
2022/10/01 07:23:18;;;;;;;;;;;13.50;50.00;;;11.37;56.95;100385.72;12247699;19;20310;-83
2022/10/01 07:27:20;;;;;;;;;;;13.60;50.00;;;11.64;56.75;100422.38;12246748;19;19914;-83
2022/10/01 07:31:23;;;;;;;;;;;13.60;50.10;;;11.48;56.72;100378.88;12243987;19;19948;-83
2022/10/01 07:35:24;;;;;;;;;;;13.70;50.20;;;11.77;56.78;100410.13;12245934;19;20005;-85
2022/10/01 07:39:25;;;;;;;;;;;13.80;49.90;;;11.79;56.71;100405.66;12250373;19;19911;-85
2022/10/01 07:43:28;;;;;;;;;;;13.80;50.00;;;11.85;56.80;100388.72;12252946;19;19922;-85
2022/10/01 07:47:30;;;;;;;;;;;13.90;50.00;;;11.91;56.77;100390.97;12248112;19;19926;-85
2022/10/01 07:51:31;;;;;;;;;;;14.00;50.20;;;11.90;56.85;100363.94;12251737;19;19911;-84
2022/10/01 07:55:33;;;;;;;;;;;14.00;49.90;;;12.08;56.95;100384.63;12259583;19;19915;-85
2022/10/01 07:59:34;;;;;;;;;;;14.10;50.60;;;12.12;56.90;100366.00;12257550;19;20350;-84
2022/10/01 08:03:36;;;;;;;;;;;14.20;50.10;;;12.27;56.82;100366.72;12258821;19;19927;-85
2022/10/01 08:07:37;;;;;;;;;;;14.20;50.10;;;12.10;56.85;100323.38;12252602;19;19925;-85
2022/10/01 08:11:39;;;;;;;;;;;14.30;50.10;;;11.99;56.82;100281.41;12254487;19;19987;-85
2022/10/01 08:15:43;;;;;;;;;;;14.40;50.10;;;12.54;56.95;100350.06;12251669;19;19974;-84
2022/10/01 08:19:44;;;;;;;;;;;14.50;50.00;;;12.56;56.99;100328.06;12250491;19;19982;-84
2022/10/01 08:23:46;;;;;;;;;;;14.50;50.00;;;12.62;56.91;100326.78;12248404;19;19935;-84
2022/10/01 08:27:47;;;;;;;;;;;14.70;50.20;;;12.79;57.00;100323.81;12248156;19;19930;-84
2022/10/01 08:31:49;;;;;;;;;;;14.70;50.10;;;12.87;56.89;100323.25;12250904;19;19928;-84
2022/10/01 08:35:50;;;;;;;;;;;15.00;50.40;;;12.95;57.00;100315.69;12246937;19;19924;-84
2022/10/01 08:39:53;;;;;;;;;;;14.90;50.20;;;13.01;56.99;100309.16;12249927;19;19942;-84
2022/10/01 08:43:57;;;;;;;;;;;15.00;50.10;;;13.00;56.92;100297.00;12249983;19;19917;-84
2022/10/01 08:48:04;;;;;;;;;;;15.00;50.10;;;13.18;57.01;100311.41;12245768;19;19974;-84
2022/10/01 08:52:09;;;;;;;;;;;15.10;50.10;;;12.81;56.91;100245.94;12246103;19;19923;-84
2022/10/01 08:56:21;;;;;;;;;;;15.20;50.20;;;13.22;57.02;100298.91;12243623;19;19919;-84
2022/10/01 09:00:22;;;;;;;;;;;15.30;50.20;;;13.34;56.99;100291.94;12245374;19;19935;-83
2022/10/01 09:04:27;;;;;;;;;;;15.40;50.20;;;13.35;57.02;100260.38;12241433;19;19915;-83
2022/10/01 09:08:56;;;;;;;;;;;15.40;50.20;;;13.64;57.06;100291.47;12244674;19;19978;-84
2022/10/01 09:13:26;;;;;;;;;;;15.50;50.10;;;13.77;56.93;100286.13;12245769;19;20398;-83
2022/10/01 09:17:40;;;;;;;;;;;15.60;50.20;;;13.90;56.92;100287.69;12246615;19;19919;-84
2022/10/01 09:21:56;;;;;;;;;;;15.80;50.40;;;13.98;57.09;100273.16;12248458;19;19922;-83
2022/10/01 09:26:01;;;;;;;;;;;15.90;50.30;;;14.15;56.90;100273.53;12244142;19;19931;-84
2022/10/01 09:30:11;;;;;;;;;;;16.00;50.40;;;14.22;56.82;100252.06;12248192;19;20261;-84
2022/10/01 09:34:15;;;;;;;;;;;16.10;50.30;;;14.33;56.84;100245.00;12242740;19;19918;-83
2022/10/01 09:38:37;;;;;;;;;;;16.20;50.40;;;14.45;56.86;100258.97;12242244;19;20100;-84
2022/10/01 09:42:39;;;;;;;;;;;16.30;50.30;;;14.45;56.68;100230.06;12245349;19;19928;-83
2022/10/01 09:46:41;;;;;;;;;;;16.40;50.30;;;14.50;56.66;100225.28;12242562;19;19911;-83
2022/10/01 09:50:55;;;;;;;;;;;16.50;50.30;;;14.57;56.78;100225.66;12244701;19;19928;-84
2022/10/01 09:55:06;;;;;;;;;;;16.50;50.30;;;14.72;56.73;100228.84;12246974;19;20349;-84
2022/10/01 09:59:16;;;;;;;;;;;16.60;50.20;;;14.45;56.68;100181.97;12249386;19;19936;-84
2022/10/01 10:03:23;;;;;;;;;;;16.70;50.20;;;14.54;56.63;100187.31;12247719;19;19915;-85
2022/10/01 10:07:25;;;;;;;;;;;16.70;50.20;;;14.78;56.67;100202.91;12246310;19;19929;-84
2022/10/01 10:11:28;;;;;;;;;;;16.80;50.20;;;14.81;56.77;100212.34;12244604;19;19910;-84
2022/10/01 10:15:31;;;;;;;;;;;16.80;50.20;;;14.78;56.84;100191.56;12248468;19;19918;-84
2022/10/01 10:19:34;;;;;;;;;;;16.80;50.10;;;14.79;56.58;100193.22;12251307;19;19943;-83
2022/10/01 10:23:46;;;;;;;;;;;16.80;50.10;;;14.47;56.69;100133.56;12260495;19;19907;-83
2022/10/01 10:27:54;;;;;;;;;;;16.90;50.10;;;14.65;56.89;100154.09;12255713;19;19927;-84
2022/10/01 10:31:56;;;;;;;;;;;16.80;50.00;;;14.68;56.85;100166.97;12259843;19;19926;-84
2022/10/01 10:36:00;;;;;;;;;;;16.80;50.00;;;14.44;56.73;100125.09;12256354;19;19915;-86
2022/10/01 10:40:04;;;;;;;;;;;16.80;50.40;;;14.69;57.00;100172.13;12256609;19;19911;-86
2022/10/01 10:44:07;;;;;;;;;;;16.90;50.10;;;14.66;56.87;100161.81;12267180;19;19944;-87
2022/10/01 10:48:13;;;;;;;;;;;16.80;50.10;;;14.70;56.89;100186.91;12252349;19;19924;-86
2022/10/01 10:52:28;;;;;;;;;;;17.10;50.40;;;14.51;57.03;100153.38;12254189;19;19918;-86
2022/10/01 10:56:30;;;;;;;;;;;16.70;50.30;;;14.41;57.20;100151.63;12247697;19;20358;-86
2022/10/01 11:00:42;;;;;;;;;;;16.70;50.40;;;14.39;57.30;100147.34;12253539;19;19914;-85
2022/10/01 11:04:44;;;;;;;;;;;16.70;50.40;;;14.32;57.29;100140.91;12249810;19;19996;-85
2022/10/01 11:08:56;;;;;;;;;;;16.50;50.30;;;14.28;57.24;100143.88;12252932;19;19944;-86
2022/10/01 11:13:06;;;;;;;;;;;16.50;50.70;;;14.38;57.46;100157.94;12255269;19;19950;-86
2022/10/01 11:17:13;;;;;;;;;;;16.40;50.60;;;14.33;57.72;100158.31;12253586;19;19923;-85
2022/10/01 11:21:37;;;;;;;;;;;16.40;50.40;;;14.22;57.55;100136.50;12255204;19;19925;-86
2022/10/01 11:25:43;;;;;;;;;;;16.40;50.60;;;14.27;57.71;100155.34;12254626;19;19932;-86
2022/10/01 11:30:02;;;;;;;;;;;16.30;50.80;;;14.08;57.60;100125.31;12257666;19;19914;-86
2022/10/01 11:34:17;;;;;;;;;;;16.30;50.70;;;14.13;57.83;100131.03;12256393;19;19911;-86
2022/10/01 11:38:44;;;;;;;;;;;16.30;50.70;;;14.21;58.05;100161.09;12255190;19;19922;-86
2022/10/01 11:42:47;;;;;;;;;;;16.30;50.90;;;14.12;58.16;100139.00;12260573;19;19915;-86
2022/10/01 11:46:58;;;;;;;;;;;16.50;51.30;;;14.12;57.94;100131.13;12255122;19;20337;-85
2022/10/01 11:51:06;;;;;;;;;;;16.50;51.30;;;14.20;57.97;100131.34;12259790;19;19944;-86
2022/10/01 12:00:07;;;;;;;;;;;16.20;51.20;;;14.13;57.80;100103.94;12253006;19;19907;-86
2022/10/01 12:04:37;;;;;;;;;;;16.30;51.50;;;14.30;57.80;100134.91;12259894;19;19922;-85
2022/10/01 12:08:40;;;;;;;;;;;16.30;51.40;;;14.22;58.05;100126.00;12256378;19;19923;-85
2022/10/01 12:13:14;;;;;;;;;;;16.30;51.20;;;14.25;58.12;100131.00;12247084;19;19934;-82
2022/10/01 12:17:23;;;;;;;;;;;16.30;51.30;;;14.24;58.23;100126.72;12242516;19;19919;-79
2022/10/01 12:21:56;;;;;;;;;;;16.20;51.20;;;14.15;58.03;100121.25;12245689;19;19981;-80
2022/10/01 12:26:30;;;;;;;;;;;16.20;51.50;;;14.15;58.24;100120.41;12244152;19;19982;-80
2022/10/01 12:30:41;;;;;;;;;;;16.20;51.30;;;14.11;58.06;100108.47;12248872;19;19923;-79
2022/10/01 12:35:05;;;;;;;;;;;16.40;51.60;;;14.21;58.17;100119.91;12247464;19;19945;-80
2022/10/01 12:39:20;;;;;;;;;;;16.20;51.50;;;14.22;58.05;100115.50;12247973;19;19949;-79
2022/10/01 12:43:34;;;;;;;;;;;16.20;51.60;;;14.25;58.09;100110.81;12242235;19;20357;-79
2022/10/01 12:47:49;;;;;;;;;;;16.20;51.80;;;14.25;58.04;100107.38;12243116;19;19927;-79
2022/10/01 12:52:06;;;;;;;;;;;16.50;51.50;;;14.28;58.20;100125.50;12245254;19;19931;-80
2022/10/01 12:56:32;;;;;;;;;;;16.30;51.40;;;14.17;58.04;100111.44;12246116;19;20008;-80
2022/10/01 13:01:05;;;;;;;;;;;16.30;51.40;;;14.17;58.20;100105.34;12245225;19;19922;-79
2022/10/01 13:05:26;;;;;;;;;;;16.20;51.60;;;14.19;58.13;100121.00;12243316;19;19928;-80
2022/10/01 13:10:02;;;;;;;;;;;16.20;51.40;;;14.17;58.36;100119.31;12244291;19;20344;-80
2022/10/01 13:14:06;;;;;;;;;;;16.20;51.60;;;14.10;58.43;100106.81;12245448;19;19967;-81
2022/10/01 13:18:26;;;;;;;;;;;16.20;51.50;;;14.14;58.71;100108.22;12244020;19;19926;-81
2022/10/01 13:22:27;;;;;;;;;;;16.20;51.60;;;14.11;58.61;100109.31;12246723;19;20273;-81
2022/10/01 13:26:33;;;;;;;;;;;16.20;51.60;;;14.08;58.80;100112.19;12241689;19;20334;-81
2022/10/01 13:31:00;;;;;;;;;;;16.40;51.70;;;13.98;58.74;100092.84;12234999;19;20317;-80
2022/10/01 13:35:25;;;;;;;;;;;16.10;51.90;;;14.00;58.94;100096.19;12240898;19;19951;-80
2022/10/01 13:39:32;;;;;;;;;;;16.10;51.60;;;14.02;58.80;100094.28;12242186;19;20382;-81
2022/10/01 13:43:34;;;;;;;;;;;16.10;51.80;;;14.00;58.71;100100.63;12242029;19;19926;-81
2022/10/01 13:47:38;;;;;;;;;;;16.10;51.90;;;13.93;58.85;100084.50;12238865;19;20270;-80
2022/10/01 13:51:41;;;;;;;;;;;16.10;51.90;;;14.09;58.73;100113.84;12241661;19;19919;-80
2022/10/01 13:55:45;;;;;;;;;;;16.10;52.10;;;14.08;58.66;100103.47;12253272;19;20507;-80
2022/10/01 13:59:56;;;;;;;;;;;16.10;52.10;;;14.14;58.61;100111.69;12254217;19;19939;-80
2022/10/01 14:04:28;;;;;;;;;;;16.10;52.00;;;14.20;58.59;100114.78;12255150;19;19915;-80
2022/10/01 14:08:47;;;;;;;;;;;16.10;52.30;;;14.23;58.53;100110.13;12256139;19;19915;-82
2022/10/01 14:17:09;;;;;;;;;;;16.40;52.70;;;14.26;58.57;100098.53;12252600;19;20326;-80
2022/10/01 14:21:29;;;;;;;;;;;16.20;52.60;;;14.30;58.45;100092.06;12254786;19;20663;-80
2022/10/01 14:25:37;;;;;;;;;;;16.30;52.60;;;14.30;58.47;100084.19;12252149;19;19935;-81
2022/10/01 14:29:53;;;;;;;;;;;16.30;52.30;;;14.43;58.63;100094.53;12255802;19;20333;-81
2022/10/01 14:34:12;;;;;;;;;;;16.40;52.50;;;14.47;58.64;100088.06;12255057;19;19924;-80
2022/10/01 14:38:18;;;;;;;;;;;16.40;52.30;;;14.41;58.63;100073.63;12253971;19;19919;-81
2022/10/01 14:42:19;;;;;;;;;;;16.40;52.40;;;14.51;58.57;100086.88;12255746;19;20452;-81
2022/10/01 14:46:21;;;;;;;;;;;16.40;52.40;;;14.43;58.54;100060.38;12251222;19;19927;-81
2022/10/01 14:50:23;;;;;;;;;;;16.40;52.30;;;14.62;58.66;100086.03;12255465;19;19968;-80
2022/10/01 14:54:25;;;;;;;;;;;16.70;52.40;;;14.64;58.63;100081.47;12254695;19;19919;-81
2022/10/01 14:58:34;;;;;;;;;;;16.60;53.00;;;14.62;58.51;100071.06;12252738;19;19911;-81
2022/10/01 15:03:06;;;;;;;;;;;16.60;52.50;;;14.71;58.57;100085.25;12251189;19;19930;-81
2022/10/01 15:07:12;;;;;;;;;;;16.60;52.60;;;14.71;58.53;100072.09;12246184;19;19970;-81
2022/10/01 15:11:17;;;;;;;;;;;16.60;52.60;;;14.77;58.53;100076.84;12251696;19;19926;-80
2022/10/01 15:15:18;;;;;;;;;;;16.70;52.60;;;14.74;58.54;100061.34;12252097;19;20301;-80
2022/10/01 15:19:21;;;;;;;;;;;16.70;52.60;;;14.86;58.58;100085.78;12250524;19;19918;-80
2022/10/01 15:23:24;;;;;;;;;;;16.70;52.70;;;14.80;58.54;100066.94;12253144;19;20340;-80
2022/10/01 15:27:25;;;;;;;;;;;16.80;52.70;;;14.89;58.57;100069.75;12246806;19;19982;-80
2022/10/01 15:31:27;;;;;;;;;;;16.80;52.60;;;14.85;58.58;100065.69;12249319;19;19911;-81
2022/10/01 15:35:28;;;;;;;;;;;16.90;52.70;;;14.86;58.72;100067.38;12243451;19;19962;-80
2022/10/01 15:39:36;;;;;;;;;;;16.90;52.80;;;14.95;58.58;100085.81;12241078;19;19931;-80
2022/10/01 15:43:40;;;;;;;;;;;16.90;52.80;;;15.04;58.47;100089.47;12244948;19;20363;-80
2022/10/01 15:47:50;;;;;;;;;;;17.00;52.80;;;15.08;58.48;100098.78;12245101;19;20329;-80
2022/10/01 15:56:22;;;;;;;;;;;17.10;52.70;;;14.91;58.51;100066.03;12245373;19;19930;-80
2022/10/01 16:00:26;;;;;;;;;;;17.40;52.80;;;15.08;58.45;100087.44;12247689;19;19947;-80
2022/10/01 16:04:27;;;;;;;;;;;17.10;52.70;;;15.13;58.59;100093.16;12244997;19;19923;-79
2022/10/01 16:08:34;;;;;;;;;;;17.10;52.60;;;15.15;58.54;100086.78;12246259;19;20328;-80
2022/10/01 16:12:36;;;;;;;;;;;17.10;52.80;;;15.14;58.63;100082.47;12251223;19;19935;-80
2022/10/01 16:16:38;;;;;;;;;;;17.10;52.70;;;15.13;58.53;100086.09;12245816;19;19926;-80
2022/10/01 16:20:44;;;;;;;;;;;17.20;52.80;;;15.17;58.45;100102.44;12249556;19;19918;-80
2022/10/01 16:24:47;;;;;;;;;;;17.20;52.70;;;15.22;58.53;100116.03;12244351;19;20006;-80
2022/10/01 16:28:52;;;;;;;;;;;17.40;52.80;;;15.20;58.55;100117.94;12247625;19;19919;-80
2022/10/01 16:32:54;;;;;;;;;;;17.30;52.80;;;15.14;58.63;100110.59;12246702;19;20023;-80
2022/10/01 16:36:56;;;;;;;;;;;17.40;52.80;;;15.17;58.46;100121.66;12246219;19;19927;-80
2022/10/01 16:40:58;;;;;;;;;;;17.20;52.60;;;15.10;58.59;100128.44;12248472;19;20000;-80
2022/10/01 16:44:59;;;;;;;;;;;17.10;52.50;;;15.12;58.52;100130.91;12246258;19;19931;-80
2022/10/01 16:49:08;;;;;;;;;;;17.10;52.50;;;15.08;58.42;100129.50;12248269;19;19914;-80
2022/10/01 16:53:15;;;;;;;;;;;17.10;52.50;;;15.06;58.54;100142.78;12241126;19;20216;-80
2022/10/01 16:57:16;;;;;;;;;;;17.30;52.70;;;14.96;58.52;100133.97;12243204;19;19919;-80
2022/10/01 17:01:18;;;;;;;;;;;17.10;52.60;;;14.93;58.48;100128.97;12246455;19;19919;-80
2022/10/01 17:05:24;;;;;;;;;;;17.20;52.70;;;15.02;58.57;100152.72;12243909;19;19926;-80
2022/10/01 17:09:25;;;;;;;;;;;17.00;52.50;;;14.91;58.60;100144.06;12247834;19;19926;-80
2022/10/01 17:13:31;;;;;;;;;;;17.10;52.50;;;14.98;58.52;100156.56;12247392;19;19923;-80
2022/10/01 17:17:32;;;;;;;;;;;17.00;52.50;;;14.88;58.65;100155.69;12244446;19;19923;-80
2022/10/01 17:21:34;;;;;;;;;;;17.00;52.60;;;14.83;58.58;100147.31;12244589;19;20272;-80
2022/10/01 17:25:37;;;;;;;;;;;17.00;52.60;;;14.87;58.46;100153.16;12240264;19;19930;-80
2022/10/01 17:29:39;;;;;;;;;;;17.10;52.50;;;14.79;58.61;100146.72;12254201;19;20532;-80
2022/10/01 17:33:41;;;;;;;;;;;16.90;52.50;;;14.85;58.58;100160.34;12254379;19;20026;-80
2022/10/01 17:37:42;;;;;;;;;;;16.90;52.50;;;14.83;58.42;100166.56;12251178;19;19907;-80
2022/10/01 17:41:44;;;;;;;;;;;16.80;52.50;;;14.74;58.54;100148.94;12255476;19;19923;-80
2022/10/01 17:45:53;;;;;;;;;;;16.80;52.50;;;14.73;58.68;100154.28;12251102;19;19911;-80
2022/10/01 17:49:55;;;;;;;;;;;16.80;52.40;;;14.67;58.51;100152.19;12253710;19;19919;-80
2022/10/01 17:53:57;;;;;;;;;;;16.70;52.50;;;14.68;58.60;100153.84;12255911;19;19923;-81
2022/10/01 17:57:58;;;;;;;;;;;16.70;52.50;;;14.71;58.53;100169.34;12251610;19;19962;-80
2022/10/01 18:01:59;;;;;;;;;;;16.70;52.50;;;14.63;58.53;100148.94;12254243;19;19925;-81
2022/10/01 18:06:02;;;;;;;;;;;16.70;52.50;;;14.64;58.72;100161.16;12250591;19;20411;-80
2022/10/01 18:10:05;;;;;;;;;;;16.70;52.50;;;14.68;58.72;100173.06;12254313;19;19914;-80
2022/10/01 18:14:07;;;;;;;;;;;16.70;52.50;;;14.56;58.79;100160.94;12255952;19;19919;-81
2022/10/01 18:18:08;;;;;;;;;;;16.70;52.70;;;14.63;58.72;100177.03;12254788;19;19922;-80
2022/10/01 18:22:13;;;;;;;;;;;16.70;52.70;;;14.72;58.58;100190.25;12253574;19;19930;-80
2022/10/01 18:26:14;;;;;;;;;;;16.60;52.70;;;14.73;58.68;100194.56;12254358;19;19915;-80
2022/10/01 18:30:16;;;;;;;;;;;16.70;52.80;;;14.74;58.69;100198.00;12257974;19;20387;-80
2022/10/01 18:34:30;;;;;;;;;;;16.70;52.80;;;14.62;58.82;100185.88;12257121;19;19926;-80
2022/10/01 18:38:33;;;;;;;;;;;16.70;52.80;;;14.70;58.78;100194.81;12252339;19;19926;-80
2022/10/01 18:43:06;;;;;;;;;;;16.70;52.80;;;14.80;58.79;100211.50;12253294;19;19919;-80
2022/10/01 18:47:15;;;;;;;;;;;16.80;52.80;;;14.80;58.84;100221.19;12252847;19;19933;-80
2022/10/01 18:51:40;;;;;;;;;;;16.70;52.80;;;14.73;58.79;100212.13;12252555;19;20030;-80